Terminal Aerodrome Forecast
Issued by NWS

Home | Current Version | Previous Version | Text Only | Print | Product List | Glossary On
Versions: 1 2 3 4 5 6 7 8 9 10 11 12 13 14 15 16 17 18 19 20 21 22 23 24 25 26 27 28 29 30 31 32 33 34 35 36 37 38 39
000
FTUS45 KBOU 230523
TAFBJC
TAF
KBJC 230523Z 2306/2406 28004KT P6SM SKC
     FM231400 VRB04KT P6SM SCT170
     FM231900 04008KT P6SM BKN120
     FM240200 30006KT P6SM SCT080 BKN120=

USA.gov is the U.S. government's official web portal to all federal, state and local government web resources and services.